sensor_id;sensor_type;location;lat;lon;timestamp;pressure;altitude;pressure_sealevel;temperature
10869;BMP180;62667;48.698;8.762;2023-09-19T00:01:52;95692.00;;;15.30
10869;BMP180;62667;48.698;8.762;2023-09-19T00:04:21;95701.00;;;15.40
10869;BMP180;62667;48.698;8.762;2023-09-19T00:06:55;95701.00;;;15.40
10869;BMP180;62667;48.698;8.762;2023-09-19T00:09:22;95690.00;;;15.30
10869;BMP180;62667;48.698;8.762;2023-09-19T00:11:52;95692.00;;;15.30
10869;BMP180;62667;48.698;8.762;2023-09-19T00:14:19;95692.00;;;15.30
10869;BMP180;62667;48.698;8.762;2023-09-19T00:16:50;95696.00;;;15.30
10869;BMP180;62667;48.698;8.762;2023-09-19T00:19:18;95704.00;;;15.40
10869;BMP180;62667;48.698;8.762;2023-09-19T00:21:46;95697.00;;;15.50
10869;BMP180;62667;48.698;8.762;2023-09-19T00:24:14;95703.00;;;15.20
10869;BMP180;62667;48.698;8.762;2023-09-19T00:26:43;95702.00;;;15.20
10869;BMP180;62667;48.698;8.762;2023-09-19T00:29:13;95708.00;;;15.20
10869;BMP180;62667;48.698;8.762;2023-09-19T00:31:43;95693.00;;;15.20
10869;BMP180;62667;48.698;8.762;2023-09-19T00:34:11;95699.00;;;15.30
10869;BMP180;62667;48.698;8.762;2023-09-19T00:36:38;95704.00;;;15.20
10869;BMP180;62667;48.698;8.762;2023-09-19T00:39:07;95700.00;;;15.20
10869;BMP180;62667;48.698;8.762;2023-09-19T00:41:35;95711.00;;;15.20
10869;BMP180;62667;48.698;8.762;2023-09-19T00:44:03;95702.00;;;15.30
10869;BMP180;62667;48.698;8.762;2023-09-19T00:46:31;95708.00;;;15.10
10869;BMP180;62667;48.698;8.762;2023-09-19T00:48:59;95708.00;;;15.00
10869;BMP180;62667;48.698;8.762;2023-09-19T00:51:27;95717.00;;;15.00
10869;BMP180;62667;48.698;8.762;2023-09-19T00:53:56;95719.00;;;15.10
10869;BMP180;62667;48.698;8.762;2023-09-19T00:56:26;95720.00;;;15.20
10869;BMP180;62667;48.698;8.762;2023-09-19T00:58:56;95721.00;;;15.10
10869;BMP180;62667;48.698;8.762;2023-09-19T01:01:24;95721.00;;;15.20
10869;BMP180;62667;48.698;8.762;2023-09-19T01:03:51;95716.00;;;15.20
10869;BMP180;62667;48.698;8.762;2023-09-19T01:06:20;95711.00;;;15.10
10869;BMP180;62667;48.698;8.762;2023-09-19T01:08:47;95729.00;;;15.10
10869;BMP180;62667;48.698;8.762;2023-09-19T01:11:20;95724.00;;;15.10
10869;BMP180;62667;48.698;8.762;2023-09-19T01:13:56;95719.00;;;15.20
10869;BMP180;62667;48.698;8.762;2023-09-19T01:16:35;95728.00;;;15.10
10869;BMP180;62667;48.698;8.762;2023-09-19T01:19:26;95732.00;;;15.10
10869;BMP180;62667;48.698;8.762;2023-09-19T01:22:05;95733.00;;;15.20
10869;BMP180;62667;48.698;8.762;2023-09-19T01:24:55;95737.00;;;15.10
10869;BMP180;62667;48.698;8.762;2023-09-19T01:27:53;95729.00;;;15.20
10869;BMP180;62667;48.698;8.762;2023-09-19T01:30:29;95739.00;;;15.20
10869;BMP180;62667;48.698;8.762;2023-09-19T01:32:59;95738.00;;;15.20
10869;BMP180;62667;48.698;8.762;2023-09-19T01:35:27;95746.00;;;15.10
10869;BMP180;62667;48.698;8.762;2023-09-19T01:37:54;95750.00;;;15.20
10869;BMP180;62667;48.698;8.762;2023-09-19T01:40:22;95747.00;;;15.30
10869;BMP180;62667;48.698;8.762;2023-09-19T01:42:56;95742.00;;;15.20
10869;BMP180;62667;48.698;8.762;2023-09-19T01:45:34;95747.00;;;15.30
10869;BMP180;62667;48.698;8.762;2023-09-19T01:48:12;95746.00;;;15.20
10869;BMP180;62667;48.698;8.762;2023-09-19T01:50:52;95748.00;;;15.00
10869;BMP180;62667;48.698;8.762;2023-09-19T01:53:25;95747.00;;;15.00
10869;BMP180;62667;48.698;8.762;2023-09-19T01:55:54;95758.00;;;14.80
10869;BMP180;62667;48.698;8.762;2023-09-19T01:58:27;95747.00;;;15.00
10869;BMP180;62667;48.698;8.762;2023-09-19T02:00:59;95758.00;;;14.70
10869;BMP180;62667;48.698;8.762;2023-09-19T02:03:27;95758.00;;;14.70
10869;BMP180;62667;48.698;8.762;2023-09-19T02:05:55;95761.00;;;14.60
10869;BMP180;62667;48.698;8.762;2023-09-19T02:08:23;95758.00;;;14.50
10869;BMP180;62667;48.698;8.762;2023-09-19T02:10:51;95750.00;;;14.50
10869;BMP180;62667;48.698;8.762;2023-09-19T02:13:19;95760.00;;;14.60
10869;BMP180;62667;48.698;8.762;2023-09-19T02:15:47;95753.00;;;14.50
10869;BMP180;62667;48.698;8.762;2023-09-19T02:18:16;95754.00;;;14.50
10869;BMP180;62667;48.698;8.762;2023-09-19T02:20:44;95754.00;;;14.60
10869;BMP180;62667;48.698;8.762;2023-09-19T02:23:13;95761.00;;;14.70
10869;BMP180;62667;48.698;8.762;2023-09-19T02:25:41;95759.00;;;14.80
10869;BMP180;62667;48.698;8.762;2023-09-19T02:28:10;95757.00;;;15.00
10869;BMP180;62667;48.698;8.762;2023-09-19T02:30:37;95757.00;;;15.00
10869;BMP180;62667;48.698;8.762;2023-09-19T02:33:05;95762.00;;;14.90
10869;BMP180;62667;48.698;8.762;2023-09-19T02:35:34;95769.00;;;14.90
10869;BMP180;62667;48.698;8.762;2023-09-19T02:38:02;95759.00;;;14.90
10869;BMP180;62667;48.698;8.762;2023-09-19T02:40:32;95773.00;;;14.90
10869;BMP180;62667;48.698;8.762;2023-09-19T02:43:02;95770.00;;;14.90
10869;BMP180;62667;48.698;8.762;2023-09-19T02:45:29;95767.00;;;15.00
10869;BMP180;62667;48.698;8.762;2023-09-19T02:47:57;95772.00;;;15.00
10869;BMP180;62667;48.698;8.762;2023-09-19T02:50:25;95776.00;;;15.10
10869;BMP180;62667;48.698;8.762;2023-09-19T02:52:54;95781.00;;;15.10
10869;BMP180;62667;48.698;8.762;2023-09-19T02:55:22;95777.00;;;15.20
10869;BMP180;62667;48.698;8.762;2023-09-19T02:57:50;95771.00;;;15.10
10869;BMP180;62667;48.698;8.762;2023-09-19T03:00:19;95781.00;;;15.00
10869;BMP180;62667;48.698;8.762;2023-09-19T03:02:48;95775.00;;;15.00
10869;BMP180;62667;48.698;8.762;2023-09-19T03:05:15;95774.00;;;15.10
10869;BMP180;62667;48.698;8.762;2023-09-19T03:07:43;95780.00;;;15.20
10869;BMP180;62667;48.698;8.762;2023-09-19T03:10:13;95795.00;;;15.20
10869;BMP180;62667;48.698;8.762;2023-09-19T03:12:42;95780.00;;;15.30
10869;BMP180;62667;48.698;8.762;2023-09-19T03:15:09;95783.00;;;15.20
10869;BMP180;62667;48.698;8.762;2023-09-19T03:17:37;95791.00;;;15.20
10869;BMP180;62667;48.698;8.762;2023-09-19T03:20:06;95794.00;;;15.20
10869;BMP180;62667;48.698;8.762;2023-09-19T03:22:35;95787.00;;;15.10
10869;BMP180;62667;48.698;8.762;2023-09-19T03:25:03;95789.00;;;15.30
10869;BMP180;62667;48.698;8.762;2023-09-19T03:27:35;95790.00;;;15.20
10869;BMP180;62667;48.698;8.762;2023-09-19T03:30:03;95785.00;;;15.20
10869;BMP180;62667;48.698;8.762;2023-09-19T03:32:34;95783.00;;;15.30
10869;BMP180;62667;48.698;8.762;2023-09-19T03:35:04;95783.00;;;15.30
10869;BMP180;62667;48.698;8.762;2023-09-19T03:37:32;95781.00;;;15.20
10869;BMP180;62667;48.698;8.762;2023-09-19T03:40:00;95788.00;;;15.20
10869;BMP180;62667;48.698;8.762;2023-09-19T03:42:30;95786.00;;;15.30
10869;BMP180;62667;48.698;8.762;2023-09-19T03:44:59;95786.00;;;15.50
10869;BMP180;62667;48.698;8.762;2023-09-19T03:47:31;95789.00;;;15.50
10869;BMP180;62667;48.698;8.762;2023-09-19T03:49:59;95780.00;;;15.50
10869;BMP180;62667;48.698;8.762;2023-09-19T03:52:26;95778.00;;;15.50
10869;BMP180;62667;48.698;8.762;2023-09-19T03:54:54;95773.00;;;15.50
10869;BMP180;62667;48.698;8.762;2023-09-19T03:57:21;95777.00;;;15.50
10869;BMP180;62667;48.698;8.762;2023-09-19T03:59:49;95776.00;;;15.50
10869;BMP180;62667;48.698;8.762;2023-09-19T04:02:20;95777.00;;;15.50
10869;BMP180;62667;48.698;8.762;2023-09-19T04:04:49;95778.00;;;15.50
10869;BMP180;62667;48.698;8.762;2023-09-19T04:07:17;95772.00;;;15.50
10869;BMP180;62667;48.698;8.762;2023-09-19T04:09:45;95774.00;;;15.50
10869;BMP180;62667;48.698;8.762;2023-09-19T04:12:12;95771.00;;;15.40
10869;BMP180;62667;48.698;8.762;2023-09-19T04:14:43;95774.00;;;15.40
10869;BMP180;62667;48.698;8.762;2023-09-19T04:17:11;95773.00;;;15.30
10869;BMP180;62667;48.698;8.762;2023-09-19T04:19:40;95785.00;;;15.30
10869;BMP180;62667;48.698;8.762;2023-09-19T04:22:07;95780.00;;;15.30
10869;BMP180;62667;48.698;8.762;2023-09-19T04:24:35;95779.00;;;15.30
10869;BMP180;62667;48.698;8.762;2023-09-19T04:27:04;95783.00;;;15.40
10869;BMP180;62667;48.698;8.762;2023-09-19T04:29:32;95790.00;;;15.40
10869;BMP180;62667;48.698;8.762;2023-09-19T04:31:59;95789.00;;;15.40
10869;BMP180;62667;48.698;8.762;2023-09-19T04:34:27;95802.00;;;15.20
10869;BMP180;62667;48.698;8.762;2023-09-19T04:36:58;95805.00;;;15.20
10869;BMP180;62667;48.698;8.762;2023-09-19T04:39:26;95803.00;;;15.20
10869;BMP180;62667;48.698;8.762;2023-09-19T04:41:54;95809.00;;;15.20
10869;BMP180;62667;48.698;8.762;2023-09-19T04:44:25;95813.00;;;15.10
10869;BMP180;62667;48.698;8.762;2023-09-19T04:46:56;95818.00;;;15.10
10869;BMP180;62667;48.698;8.762;2023-09-19T04:49:25;95814.00;;;15.00
10869;BMP180;62667;48.698;8.762;2023-09-19T04:51:58;95825.00;;;15.00
10869;BMP180;62667;48.698;8.762;2023-09-19T04:54:25;95825.00;;;15.00
10869;BMP180;62667;48.698;8.762;2023-09-19T04:56:53;95824.00;;;15.00
10869;BMP180;62667;48.698;8.762;2023-09-19T04:59:20;95825.00;;;14.90
10869;BMP180;62667;48.698;8.762;2023-09-19T05:01:49;95826.00;;;15.10
10869;BMP180;62667;48.698;8.762;2023-09-19T05:04:16;95835.00;;;15.10
10869;BMP180;62667;48.698;8.762;2023-09-19T05:06:44;95831.00;;;15.10
10869;BMP180;62667;48.698;8.762;2023-09-19T05:09:12;95834.00;;;15.10
10869;BMP180;62667;48.698;8.762;2023-09-19T05:11:41;95838.00;;;15.30
10869;BMP180;62667;48.698;8.762;2023-09-19T05:14:10;95835.00;;;15.10
10869;BMP180;62667;48.698;8.762;2023-09-19T05:16:37;95833.00;;;15.10
10869;BMP180;62667;48.698;8.762;2023-09-19T05:19:06;95835.00;;;15.20
10869;BMP180;62667;48.698;8.762;2023-09-19T05:21:33;95842.00;;;15.10
10869;BMP180;62667;48.698;8.762;2023-09-19T05:24:00;95846.00;;;15.30
10869;BMP180;62667;48.698;8.762;2023-09-19T05:26:29;95857.00;;;15.30
10869;BMP180;62667;48.698;8.762;2023-09-19T05:28:56;95853.00;;;15.20
10869;BMP180;62667;48.698;8.762;2023-09-19T05:31:23;95855.00;;;15.20
10869;BMP180;62667;48.698;8.762;2023-09-19T05:33:51;95874.00;;;15.10
10869;BMP180;62667;48.698;8.762;2023-09-19T05:36:20;95871.00;;;14.90
10869;BMP180;62667;48.698;8.762;2023-09-19T05:41:23;95875.00;;;14.80
10869;BMP180;62667;48.698;8.762;2023-09-19T05:43:51;95885.00;;;14.90
10869;BMP180;62667;48.698;8.762;2023-09-19T05:46:18;95887.00;;;14.80
10869;BMP180;62667;48.698;8.762;2023-09-19T05:48:46;95887.00;;;14.90
10869;BMP180;62667;48.698;8.762;2023-09-19T05:51:15;95903.00;;;14.90
10869;BMP180;62667;48.698;8.762;2023-09-19T05:53:44;95901.00;;;14.90
10869;BMP180;62667;48.698;8.762;2023-09-19T05:56:14;95908.00;;;14.80
10869;BMP180;62667;48.698;8.762;2023-09-19T05:58:41;95913.00;;;14.70
10869;BMP180;62667;48.698;8.762;2023-09-19T06:01:11;95912.00;;;14.80
10869;BMP180;62667;48.698;8.762;2023-09-19T06:03:39;95913.00;;;14.90
10869;BMP180;62667;48.698;8.762;2023-09-19T06:06:06;95913.00;;;14.70
10869;BMP180;62667;48.698;8.762;2023-09-19T06:08:33;95922.00;;;14.80
10869;BMP180;62667;48.698;8.762;2023-09-19T06:11:04;95916.00;;;14.90
10869;BMP180;62667;48.698;8.762;2023-09-19T06:13:35;95909.00;;;14.90
10869;BMP180;62667;48.698;8.762;2023-09-19T06:16:05;95918.00;;;14.80
10869;BMP180;62667;48.698;8.762;2023-09-19T06:18:33;95919.00;;;14.90
10869;BMP180;62667;48.698;8.762;2023-09-19T06:21:01;95924.00;;;14.90
10869;BMP180;62667;48.698;8.762;2023-09-19T06:23:33;95928.00;;;15.10
10869;BMP180;62667;48.698;8.762;2023-09-19T06:26:01;95920.00;;;15.20
10869;BMP180;62667;48.698;8.762;2023-09-19T06:28:29;95915.00;;;15.10
10869;BMP180;62667;48.698;8.762;2023-09-19T06:30:56;95911.00;;;15.20
10869;BMP180;62667;48.698;8.762;2023-09-19T06:33:23;95915.00;;;15.30
10869;BMP180;62667;48.698;8.762;2023-09-19T06:35:54;95916.00;;;15.10
10869;BMP180;62667;48.698;8.762;2023-09-19T06:38:25;95926.00;;;15.00
10869;BMP180;62667;48.698;8.762;2023-09-19T06:40:53;95927.00;;;15.10
10869;BMP180;62667;48.698;8.762;2023-09-19T06:43:20;95921.00;;;15.10
10869;BMP180;62667;48.698;8.762;2023-09-19T06:45:47;95926.00;;;15.20
10869;BMP180;62667;48.698;8.762;2023-09-19T06:48:15;95932.00;;;15.20
10869;BMP180;62667;48.698;8.762;2023-09-19T06:50:42;95935.00;;;15.20
10869;BMP180;62667;48.698;8.762;2023-09-19T06:53:12;95926.00;;;15.00
10869;BMP180;62667;48.698;8.762;2023-09-19T06:55:40;95916.00;;;15.10
10869;BMP180;62667;48.698;8.762;2023-09-19T06:58:09;95934.00;;;15.00
10869;BMP180;62667;48.698;8.762;2023-09-19T07:00:36;95931.00;;;15.20
10869;BMP180;62667;48.698;8.762;2023-09-19T07:03:06;95943.00;;;15.10
10869;BMP180;62667;48.698;8.762;2023-09-19T07:05:36;95945.00;;;14.90
10869;BMP180;62667;48.698;8.762;2023-09-19T07:08:06;95951.00;;;15.10
10869;BMP180;62667;48.698;8.762;2023-09-19T07:10:38;95952.00;;;15.20
10869;BMP180;62667;48.698;8.762;2023-09-19T07:13:08;95960.00;;;15.20
10869;BMP180;62667;48.698;8.762;2023-09-19T07:15:37;95959.00;;;15.00
10869;BMP180;62667;48.698;8.762;2023-09-19T07:18:08;95957.00;;;15.10
10869;BMP180;62667;48.698;8.762;2023-09-19T07:20:37;95958.00;;;15.20
10869;BMP180;62667;48.698;8.762;2023-09-19T07:23:04;95954.00;;;15.20
10869;BMP180;62667;48.698;8.762;2023-09-19T07:25:32;95956.00;;;15.30
10869;BMP180;62667;48.698;8.762;2023-09-19T07:28:00;95958.00;;;15.40
10869;BMP180;62667;48.698;8.762;2023-09-19T07:30:29;95975.00;;;15.50
10869;BMP180;62667;48.698;8.762;2023-09-19T07:32:56;95965.00;;;15.50
10869;BMP180;62667;48.698;8.762;2023-09-19T07:35:25;95967.00;;;15.50
10869;BMP180;62667;48.698;8.762;2023-09-19T07:37:53;95971.00;;;15.50
10869;BMP180;62667;48.698;8.762;2023-09-19T07:40:22;95979.00;;;15.50
10869;BMP180;62667;48.698;8.762;2023-09-19T07:42:49;95971.00;;;15.80
10869;BMP180;62667;48.698;8.762;2023-09-19T07:45:18;95977.00;;;15.90
10869;BMP180;62667;48.698;8.762;2023-09-19T07:47:48;95975.00;;;16.10
10869;BMP180;62667;48.698;8.762;2023-09-19T07:50:16;95978.00;;;16.20
10869;BMP180;62667;48.698;8.762;2023-09-19T07:52:44;95976.00;;;16.30
10869;BMP180;62667;48.698;8.762;2023-09-19T07:55:11;95982.00;;;16.50
10869;BMP180;62667;48.698;8.762;2023-09-19T07:57:42;95982.00;;;16.50
10869;BMP180;62667;48.698;8.762;2023-09-19T08:00:13;95991.00;;;16.80
10869;BMP180;62667;48.698;8.762;2023-09-19T08:02:44;95986.00;;;16.60
10869;BMP180;62667;48.698;8.762;2023-09-19T08:05:12;95992.00;;;16.30
10869;BMP180;62667;48.698;8.762;2023-09-19T08:07:43;95999.00;;;16.30
10869;BMP180;62667;48.698;8.762;2023-09-19T08:10:11;95999.00;;;16.10
10869;BMP180;62667;48.698;8.762;2023-09-19T08:12:42;96012.00;;;16.30
10869;BMP180;62667;48.698;8.762;2023-09-19T08:15:13;96012.00;;;16.20
10869;BMP180;62667;48.698;8.762;2023-09-19T08:17:41;96004.00;;;16.40
10869;BMP180;62667;48.698;8.762;2023-09-19T08:20:11;96017.00;;;16.20
10869;BMP180;62667;48.698;8.762;2023-09-19T08:22:43;96017.00;;;16.20
10869;BMP180;62667;48.698;8.762;2023-09-19T08:25:14;96022.00;;;16.30
10869;BMP180;62667;48.698;8.762;2023-09-19T08:27:44;96026.00;;;16.30
10869;BMP180;62667;48.698;8.762;2023-09-19T08:30:14;96027.00;;;16.30
10869;BMP180;62667;48.698;8.762;2023-09-19T08:32:44;96018.00;;;16.40
10869;BMP180;62667;48.698;8.762;2023-09-19T08:35:13;96020.00;;;16.60
10869;BMP180;62667;48.698;8.762;2023-09-19T08:37:42;96015.00;;;16.70
10869;BMP180;62667;48.698;8.762;2023-09-19T08:40:11;96012.00;;;17.10
10869;BMP180;62667;48.698;8.762;2023-09-19T08:42:49;96040.00;;;17.00
10869;BMP180;62667;48.698;8.762;2023-09-19T08:45:17;96031.00;;;16.90
10869;BMP180;62667;48.698;8.762;2023-09-19T08:47:50;96030.00;;;16.80
10869;BMP180;62667;48.698;8.762;2023-09-19T08:50:27;96035.00;;;17.10
10869;BMP180;62667;48.698;8.762;2023-09-19T08:52:56;96058.00;;;16.80
10869;BMP180;62667;48.698;8.762;2023-09-19T08:55:28;96044.00;;;16.70
10869;BMP180;62667;48.698;8.762;2023-09-19T08:58:00;96055.00;;;16.60
10869;BMP180;62667;48.698;8.762;2023-09-19T09:00:31;96050.00;;;16.70
10869;BMP180;62667;48.698;8.762;2023-09-19T09:03:00;96028.00;;;16.90
10869;BMP180;62667;48.698;8.762;2023-09-19T09:05:32;96044.00;;;16.90
10869;BMP180;62667;48.698;8.762;2023-09-19T09:08:05;96054.00;;;16.90
10869;BMP180;62667;48.698;8.762;2023-09-19T09:10:33;96051.00;;;16.70
10869;BMP180;62667;48.698;8.762;2023-09-19T09:13:01;96048.00;;;17.20
10869;BMP180;62667;48.698;8.762;2023-09-19T09:15:36;96063.00;;;16.90
10869;BMP180;62667;48.698;8.762;2023-09-19T09:18:04;96046.00;;;16.80
10869;BMP180;62667;48.698;8.762;2023-09-19T09:20:33;96062.00;;;16.90
10869;BMP180;62667;48.698;8.762;2023-09-19T09:23:00;96061.00;;;17.00
10869;BMP180;62667;48.698;8.762;2023-09-19T09:25:47;96050.00;;;17.10
10869;BMP180;62667;48.698;8.762;2023-09-19T09:28:20;96049.00;;;17.30
10869;BMP180;62667;48.698;8.762;2023-09-19T09:30:48;96044.00;;;17.30
10869;BMP180;62667;48.698;8.762;2023-09-19T09:33:17;96039.00;;;17.60
10869;BMP180;62667;48.698;8.762;2023-09-19T09:35:54;96071.00;;;17.60
10869;BMP180;62667;48.698;8.762;2023-09-19T09:38:24;96051.00;;;17.40
10869;BMP180;62667;48.698;8.762;2023-09-19T09:40:55;96060.00;;;17.10
10869;BMP180;62667;48.698;8.762;2023-09-19T09:43:29;96059.00;;;17.00
10869;BMP180;62667;48.698;8.762;2023-09-19T09:46:12;96068.00;;;17.10
10869;BMP180;62667;48.698;8.762;2023-09-19T09:48:59;96056.00;;;17.40
10869;BMP180;62667;48.698;8.762;2023-09-19T09:51:45;96058.00;;;17.40
10869;BMP180;62667;48.698;8.762;2023-09-19T09:54:16;96063.00;;;17.30
10869;BMP180;62667;48.698;8.762;2023-09-19T09:56:55;96065.00;;;17.10
10869;BMP180;62667;48.698;8.762;2023-09-19T09:59:48;96064.00;;;17.60
10869;BMP180;62667;48.698;8.762;2023-09-19T10:02:17;96050.00;;;17.80
10869;BMP180;62667;48.698;8.762;2023-09-19T10:04:52;96059.00;;;17.90
10869;BMP180;62667;48.698;8.762;2023-09-19T10:07:29;96056.00;;;17.90
10869;BMP180;62667;48.698;8.762;2023-09-19T10:10:02;96057.00;;;17.90
10869;BMP180;62667;48.698;8.762;2023-09-19T10:12:44;96056.00;;;17.90
10869;BMP180;62667;48.698;8.762;2023-09-19T10:15:15;96059.00;;;17.80
10869;BMP180;62667;48.698;8.762;2023-09-19T10:17:46;96060.00;;;17.90
10869;BMP180;62667;48.698;8.762;2023-09-19T10:20:16;96036.00;;;18.10
10869;BMP180;62667;48.698;8.762;2023-09-19T10:22:55;96062.00;;;18.20
10869;BMP180;62667;48.698;8.762;2023-09-19T10:25:27;96056.00;;;17.50
10869;BMP180;62667;48.698;8.762;2023-09-19T10:27:57;96081.00;;;17.70
10869;BMP180;62667;48.698;8.762;2023-09-19T10:30:29;96059.00;;;17.50
10869;BMP180;62667;48.698;8.762;2023-09-19T10:33:01;96064.00;;;17.40
10869;BMP180;62667;48.698;8.762;2023-09-19T10:35:30;96054.00;;;17.50
10869;BMP180;62667;48.698;8.762;2023-09-19T10:38:02;96056.00;;;17.80
10869;BMP180;62667;48.698;8.762;2023-09-19T10:40:33;96058.00;;;17.60
10869;BMP180;62667;48.698;8.762;2023-09-19T10:43:03;96060.00;;;17.70
10869;BMP180;62667;48.698;8.762;2023-09-19T10:45:33;96064.00;;;17.50
10869;BMP180;62667;48.698;8.762;2023-09-19T10:48:01;96060.00;;;17.70
10869;BMP180;62667;48.698;8.762;2023-09-19T10:50:33;96057.00;;;18.00
10869;BMP180;62667;48.698;8.762;2023-09-19T10:53:06;96043.00;;;17.90
10869;BMP180;62667;48.698;8.762;2023-09-19T10:55:35;96030.00;;;18.20
10869;BMP180;62667;48.698;8.762;2023-09-19T10:58:03;96050.00;;;18.40
10869;BMP180;62667;48.698;8.762;2023-09-19T11:00:53;96048.00;;;18.40
10869;BMP180;62667;48.698;8.762;2023-09-19T11:03:23;96052.00;;;18.60
10869;BMP180;62667;48.698;8.762;2023-09-19T11:06:04;96057.00;;;18.50
10869;BMP180;62667;48.698;8.762;2023-09-19T11:08:56;96060.00;;;18.40
10869;BMP180;62667;48.698;8.762;2023-09-19T11:11:57;96049.00;;;18.50
10869;BMP180;62667;48.698;8.762;2023-09-19T11:14:30;96042.00;;;18.30
10869;BMP180;62667;48.698;8.762;2023-09-19T11:20:24;96047.00;;;18.30
10869;BMP180;62667;48.698;8.762;2023-09-19T11:23:21;96022.00;;;18.70
10869;BMP180;62667;48.698;8.762;2023-09-19T11:25:58;96015.00;;;19.10
10869;BMP180;62667;48.698;8.762;2023-09-19T11:28:33;96024.00;;;19.30
10869;BMP180;62667;48.698;8.762;2023-09-19T11:31:41;96015.00;;;19.10
10869;BMP180;62667;48.698;8.762;2023-09-19T11:33:47;96032.00;;;19.40
10869;BMP180;62667;48.698;8.762;2023-09-19T11:36:16;96030.00;;;19.50
10869;BMP180;62667;48.698;8.762;2023-09-19T11:39:05;96020.00;;;19.50
10869;BMP180;62667;48.698;8.762;2023-09-19T11:41:42;96023.00;;;19.80
10869;BMP180;62667;48.698;8.762;2023-09-19T11:44:33;96015.00;;;19.30
10869;BMP180;62667;48.698;8.762;2023-09-19T11:47:06;96020.00;;;19.70
10869;BMP180;62667;48.698;8.762;2023-09-19T11:49:36;96009.00;;;19.60
10869;BMP180;62667;48.698;8.762;2023-09-19T11:52:07;96009.00;;;20.30
10869;BMP180;62667;48.698;8.762;2023-09-19T11:54:36;95996.00;;;21.10
10869;BMP180;62667;48.698;8.762;2023-09-19T11:57:08;95998.00;;;21.40
10869;BMP180;62667;48.698;8.762;2023-09-19T11:59:39;95993.00;;;20.50
10869;BMP180;62667;48.698;8.762;2023-09-19T12:02:07;95996.00;;;20.60
10869;BMP180;62667;48.698;8.762;2023-09-19T12:04:38;95989.00;;;20.90
10869;BMP180;62667;48.698;8.762;2023-09-19T12:07:07;96005.00;;;21.20
10869;BMP180;62667;48.698;8.762;2023-09-19T12:09:40;95980.00;;;20.90
10869;BMP180;62667;48.698;8.762;2023-09-19T12:12:11;96003.00;;;21.30
10869;BMP180;62667;48.698;8.762;2023-09-19T12:14:48;96001.00;;;20.50
10869;BMP180;62667;48.698;8.762;2023-09-19T12:17:16;96009.00;;;19.80
10869;BMP180;62667;48.698;8.762;2023-09-19T12:19:51;96019.00;;;19.50
10869;BMP180;62667;48.698;8.762;2023-09-19T12:22:19;96016.00;;;19.40
10869;BMP180;62667;48.698;8.762;2023-09-19T12:24:47;96005.00;;;19.50
10869;BMP180;62667;48.698;8.762;2023-09-19T12:27:16;95970.00;;;19.40
10869;BMP180;62667;48.698;8.762;2023-09-19T12:29:44;95985.00;;;19.70
10869;BMP180;62667;48.698;8.762;2023-09-19T12:32:12;95979.00;;;19.60
10869;BMP180;62667;48.698;8.762;2023-09-19T12:34:49;95983.00;;;19.80
10869;BMP180;62667;48.698;8.762;2023-09-19T12:37:18;95979.00;;;19.90
10869;BMP180;62667;48.698;8.762;2023-09-19T12:39:49;95989.00;;;19.90
10869;BMP180;62667;48.698;8.762;2023-09-19T12:42:21;95985.00;;;20.00
10869;BMP180;62667;48.698;8.762;2023-09-19T12:44:50;95996.00;;;20.10
10869;BMP180;62667;48.698;8.762;2023-09-19T12:47:22;95986.00;;;19.80
10869;BMP180;62667;48.698;8.762;2023-09-19T12:50:07;95973.00;;;19.90
10869;BMP180;62667;48.698;8.762;2023-09-19T12:52:40;95983.00;;;19.70
10869;BMP180;62667;48.698;8.762;2023-09-19T12:55:18;95981.00;;;19.60
10869;BMP180;62667;48.698;8.762;2023-09-19T12:57:58;95956.00;;;20.20
10869;BMP180;62667;48.698;8.762;2023-09-19T13:00:33;95970.00;;;19.90
10869;BMP180;62667;48.698;8.762;2023-09-19T13:03:16;95953.00;;;20.40
10869;BMP180;62667;48.698;8.762;2023-09-19T13:05:53;95960.00;;;21.10
10869;BMP180;62667;48.698;8.762;2023-09-19T13:08:26;95978.00;;;21.30
10869;BMP180;62667;48.698;8.762;2023-09-19T13:11:09;95976.00;;;20.70
10869;BMP180;62667;48.698;8.762;2023-09-19T13:13:41;95962.00;;;21.00
10869;BMP180;62667;48.698;8.762;2023-09-19T13:16:10;95963.00;;;21.90
10869;BMP180;62667;48.698;8.762;2023-09-19T13:18:44;95958.00;;;21.90
10869;BMP180;62667;48.698;8.762;2023-09-19T13:21:13;95950.00;;;22.60
10869;BMP180;62667;48.698;8.762;2023-09-19T13:23:49;95967.00;;;22.70
10869;BMP180;62667;48.698;8.762;2023-09-19T13:26:17;95962.00;;;22.00
10869;BMP180;62667;48.698;8.762;2023-09-19T13:28:45;95952.00;;;21.20
10869;BMP180;62667;48.698;8.762;2023-09-19T13:31:15;95985.00;;;21.30
10869;BMP180;62667;48.698;8.762;2023-09-19T13:33:45;95941.00;;;21.20
10869;BMP180;62667;48.698;8.762;2023-09-19T13:36:13;95971.00;;;21.80
10869;BMP180;62667;48.698;8.762;2023-09-19T13:38:40;95964.00;;;21.50
10869;BMP180;62667;48.698;8.762;2023-09-19T13:41:09;95932.00;;;22.20
10869;BMP180;62667;48.698;8.762;2023-09-19T13:43:37;95925.00;;;22.70
10869;BMP180;62667;48.698;8.762;2023-09-19T13:46:06;95929.00;;;22.80
10869;BMP180;62667;48.698;8.762;2023-09-19T13:48:38;95929.00;;;22.70
10869;BMP180;62667;48.698;8.762;2023-09-19T13:51:05;95922.00;;;22.70
10869;BMP180;62667;48.698;8.762;2023-09-19T13:53:32;95946.00;;;22.30
10869;BMP180;62667;48.698;8.762;2023-09-19T13:56:00;95912.00;;;23.20
10869;BMP180;62667;48.698;8.762;2023-09-19T13:58:28;95905.00;;;24.10
10869;BMP180;62667;48.698;8.762;2023-09-19T14:00:57;95924.00;;;23.00
10869;BMP180;62667;48.698;8.762;2023-09-19T14:03:28;95918.00;;;22.80
10869;BMP180;62667;48.698;8.762;2023-09-19T14:05:55;95902.00;;;23.30
10869;BMP180;62667;48.698;8.762;2023-09-19T14:08:22;95894.00;;;23.90
10869;BMP180;62667;48.698;8.762;2023-09-19T14:10:50;95894.00;;;25.30
10869;BMP180;62667;48.698;8.762;2023-09-19T14:13:18;95892.00;;;24.80
10869;BMP180;62667;48.698;8.762;2023-09-19T14:15:46;95903.00;;;24.90
10869;BMP180;62667;48.698;8.762;2023-09-19T14:18:14;95901.00;;;25.40
10869;BMP180;62667;48.698;8.762;2023-09-19T14:20:42;95909.00;;;25.20
10869;BMP180;62667;48.698;8.762;2023-09-19T14:23:10;95914.00;;;25.40
10869;BMP180;62667;48.698;8.762;2023-09-19T14:25:38;95925.00;;;24.60
10869;BMP180;62667;48.698;8.762;2023-09-19T14:28:06;95912.00;;;25.00
10869;BMP180;62667;48.698;8.762;2023-09-19T14:30:35;95896.00;;;25.10
10869;BMP180;62667;48.698;8.762;2023-09-19T14:33:03;95906.00;;;25.70
10869;BMP180;62667;48.698;8.762;2023-09-19T14:35:32;95911.00;;;24.80